createdAt,value
2023-05-21T00:00:45.273Z,16.37
2023-05-21T00:02:06.264Z,16.36
2023-05-21T00:05:37.990Z,16.30
2023-05-21T00:07:22.497Z,16.22
2023-05-21T00:08:50.558Z,16.30
2023-05-21T00:10:11.774Z,16.27
2023-05-21T00:11:35.171Z,16.30
2023-05-21T00:12:57.223Z,16.29
2023-05-21T00:14:18.492Z,16.29
2023-05-21T00:15:40.863Z,16.27
2023-05-21T00:17:01.797Z,16.22
2023-05-21T00:19:10.712Z,16.21
2023-05-21T00:20:33.670Z,16.19
2023-05-21T00:22:16.129Z,16.23
2023-05-21T00:23:43.398Z,16.23
2023-05-21T00:25:15.239Z,16.21
2023-05-21T00:26:36.609Z,16.21
2023-05-21T00:28:02.557Z,16.20
2023-05-21T00:29:30.527Z,16.14
2023-05-21T00:30:52.797Z,16.13
2023-05-21T00:32:35.288Z,16.13
2023-05-21T00:33:57.832Z,16.10
2023-05-21T00:35:34.245Z,16.13
2023-05-21T00:37:17.211Z,16.07
2023-05-21T00:38:39.944Z,16.10
2023-05-21T00:40:05.266Z,16.11
2023-05-21T00:41:32.134Z,16.04
2023-05-21T00:43:00.478Z,16.03
2023-05-21T00:44:34.414Z,16.02
2023-05-21T00:45:59.411Z,16.01
2023-05-21T00:47:25.119Z,16.03
2023-05-21T00:48:47.464Z,16.00
2023-05-21T00:50:11.027Z,15.98
2023-05-21T00:51:33.690Z,15.99
2023-05-21T00:53:19.579Z,15.93
2023-05-21T00:54:56.145Z,15.91
2023-05-21T00:56:21.684Z,15.92
2023-05-21T00:57:46.203Z,15.91
2023-05-21T00:59:11.411Z,15.91
2023-05-21T01:00:35.481Z,15.92
2023-05-21T01:02:04.333Z,15.89
2023-05-21T01:03:27.295Z,15.90
2023-05-21T01:04:48.510Z,15.85
2023-05-21T01:06:23.492Z,15.86
2023-05-21T01:07:46.799Z,15.82
2023-05-21T01:09:15.826Z,15.83
2023-05-21T01:10:38.446Z,15.84
2023-05-21T01:12:01.142Z,15.82
2023-05-21T01:13:24.260Z,15.81
2023-05-21T01:14:47.066Z,15.81
2023-05-21T01:16:09.117Z,15.80
2023-05-21T01:17:32.192Z,15.78
2023-05-21T01:18:57.069Z,15.78
2023-05-21T01:20:30.788Z,15.74
2023-05-21T01:22:03.193Z,15.76
2023-05-21T01:23:26.972Z,15.68
2023-05-21T01:24:51.773Z,15.73
2023-05-21T01:26:14.139Z,15.70
2023-05-21T01:27:37.525Z,15.72
2023-05-21T01:28:59.281Z,15.70
2023-05-21T01:30:41.122Z,15.66
2023-05-21T01:32:10.975Z,15.67
2023-05-21T01:33:41.302Z,15.65
2023-05-21T01:35:09.235Z,15.66
2023-05-21T01:36:41.267Z,15.64
2023-05-21T01:38:09.016Z,15.64
2023-05-21T01:39:41.931Z,15.60
2023-05-21T01:41:08.663Z,15.58
2023-05-21T01:42:34.942Z,15.58
2023-05-21T01:43:58.874Z,15.57
2023-05-21T01:45:24.348Z,15.58
2023-05-21T01:46:46.501Z,15.54
2023-05-21T01:48:09.436Z,15.56
2023-05-21T01:49:32.297Z,15.55
2023-05-21T01:50:55.494Z,15.48
2023-05-21T01:52:22.434Z,15.54
2023-05-21T01:53:44.543Z,15.50
2023-05-21T01:55:08.524Z,15.46
2023-05-21T01:56:54.223Z,15.47
2023-05-21T01:58:17.262Z,15.41
2023-05-21T01:59:39.055Z,15.44
2023-05-21T02:01:13.665Z,15.44
2023-05-21T02:02:50.564Z,15.42
2023-05-21T02:04:15.668Z,15.39
2023-05-21T02:05:57.668Z,15.35
2023-05-21T02:07:20.022Z,15.34
2023-05-21T02:08:49.998Z,15.29
2023-05-21T02:10:20.350Z,15.28
2023-05-21T02:11:41.840Z,15.28
2023-05-21T02:13:04.072Z,15.28
2023-05-21T02:14:25.619Z,15.25
2023-05-21T02:16:06.137Z,15.21
2023-05-21T02:17:31.538Z,15.22
2023-05-21T02:18:57.613Z,15.22
2023-05-21T02:20:19.583Z,15.24
2023-05-21T02:21:41.820Z,15.23
2023-05-21T02:23:04.135Z,15.23
2023-05-21T02:24:25.301Z,15.22
2023-05-21T02:25:52.462Z,15.22
2023-05-21T02:27:23.925Z,15.20
2023-05-21T02:28:46.360Z,15.24
2023-05-21T02:30:10.915Z,15.23
2023-05-21T02:31:55.136Z,15.13
2023-05-21T02:33:42.201Z,15.24
2023-05-21T02:35:06.109Z,15.21
2023-05-21T02:36:28.971Z,15.19
2023-05-21T02:37:51.361Z,15.21
2023-05-21T02:39:13.476Z,15.22
2023-05-21T02:40:36.072Z,15.20
2023-05-21T02:41:59.904Z,15.19
2023-05-21T02:43:20.960Z,15.21
2023-05-21T02:44:43.247Z,15.21
2023-05-21T02:46:09.775Z,15.21
2023-05-21T02:47:35.785Z,15.20
2023-05-21T02:49:04.570Z,15.16
2023-05-21T02:50:36.270Z,15.17
2023-05-21T02:51:58.746Z,15.20
2023-05-21T02:53:21.353Z,15.19
2023-05-21T02:54:42.903Z,15.21
2023-05-21T02:56:05.728Z,15.20
2023-05-21T02:57:29.360Z,15.20
2023-05-21T02:58:52.105Z,15.20
2023-05-21T03:00:16.177Z,15.20
2023-05-21T03:01:39.063Z,15.21
2023-05-21T03:03:01.891Z,15.19
2023-05-21T03:05:13.264Z,15.20
2023-05-21T03:06:38.916Z,15.18
2023-05-21T03:08:32.087Z,15.20
2023-05-21T03:09:53.124Z,15.20
2023-05-21T03:11:27.225Z,15.20
2023-05-21T03:12:51.249Z,15.23
2023-05-21T03:14:16.170Z,15.23
2023-05-21T03:15:56.754Z,15.24
2023-05-21T03:17:19.245Z,15.24
2023-05-21T03:18:50.951Z,15.22
2023-05-21T03:20:17.281Z,15.24
2023-05-21T03:21:38.998Z,15.31
2023-05-21T03:23:04.512Z,15.32
2023-05-21T03:24:26.436Z,15.34
2023-05-21T03:25:51.082Z,15.35
2023-05-21T03:27:12.078Z,15.37
2023-05-21T03:28:45.729Z,15.38
2023-05-21T03:30:08.050Z,15.43
2023-05-21T03:31:39.118Z,15.44
2023-05-21T03:33:03.739Z,15.48
2023-05-21T03:34:29.242Z,15.50
2023-05-21T03:35:51.772Z,15.54
2023-05-21T03:37:14.544Z,15.56
2023-05-21T03:38:37.204Z,15.58
2023-05-21T03:40:12.062Z,15.60
2023-05-21T03:41:34.366Z,15.65
2023-05-21T03:43:04.472Z,15.68
2023-05-21T03:44:27.043Z,15.70
2023-05-21T03:45:56.908Z,15.73
2023-05-21T03:47:50.087Z,15.76
2023-05-21T03:49:12.944Z,15.78
2023-05-21T03:50:35.842Z,15.82
2023-05-21T03:52:34.364Z,15.83
2023-05-21T03:53:56.057Z,15.87
2023-05-21T03:55:21.670Z,15.88
2023-05-21T03:56:59.969Z,15.86
2023-05-21T03:58:22.444Z,15.98
2023-05-21T03:59:46.104Z,15.95
2023-05-21T04:01:13.505Z,16.01
2023-05-21T04:02:36.551Z,16.06
2023-05-21T04:03:58.025Z,16.08
2023-05-21T04:05:22.180Z,16.10
2023-05-21T04:06:43.999Z,16.09
2023-05-21T04:08:07.470Z,16.18
2023-05-21T04:09:29.833Z,16.22
2023-05-21T04:11:01.392Z,16.24
2023-05-21T04:12:24.227Z,16.26
2023-05-21T04:13:45.293Z,16.37
2023-05-21T04:15:10.263Z,16.41
2023-05-21T04:16:31.384Z,16.45
2023-05-21T04:17:55.472Z,16.52
2023-05-21T04:19:18.605Z,16.56
2023-05-21T04:20:45.960Z,16.61
2023-05-21T04:23:07.913Z,16.65
2023-05-21T04:24:30.513Z,16.79
2023-05-21T04:26:12.891Z,16.80
2023-05-21T04:27:36.482Z,16.95
2023-05-21T04:29:03.092Z,17.02
2023-05-21T04:30:29.424Z,17.06
2023-05-21T04:31:52.923Z,17.19
2023-05-21T04:33:18.552Z,17.29
2023-05-21T04:34:41.009Z,17.39
2023-05-21T04:36:12.378Z,17.49
2023-05-21T04:37:35.312Z,17.59
2023-05-21T04:38:57.918Z,17.73
2023-05-21T04:40:24.678Z,17.86
2023-05-21T04:41:47.009Z,18.01
2023-05-21T04:43:11.686Z,18.16
2023-05-21T04:44:36.387Z,18.30
2023-05-21T04:46:16.833Z,18.43
2023-05-21T04:47:39.524Z,18.61
2023-05-21T04:50:17.610Z,18.65
2023-05-21T04:51:41.735Z,18.94
2023-05-21T04:53:17.599Z,19.08
2023-05-21T04:54:55.379Z,19.32
2023-05-21T04:56:29.641Z,19.61
2023-05-21T04:57:51.425Z,19.83
2023-05-21T04:59:13.634Z,19.96
2023-05-21T05:00:38.068Z,20.20
2023-05-21T05:02:03.669Z,20.40
2023-05-21T05:03:29.039Z,20.64
2023-05-21T05:04:51.996Z,20.84
2023-05-21T05:06:15.679Z,21.04
2023-05-21T05:08:04.410Z,21.27
2023-05-21T05:09:38.334Z,21.45
2023-05-21T05:11:03.947Z,21.78
2023-05-21T05:14:36.921Z,22.24
2023-05-21T05:16:00.660Z,22.46
2023-05-21T05:17:24.764Z,22.66
2023-05-21T05:18:47.061Z,22.85
2023-05-21T05:20:10.488Z,23.05
2023-05-21T05:21:35.668Z,23.20
2023-05-21T05:22:57.920Z,23.41
2023-05-21T05:24:19.914Z,23.57
2023-05-21T05:25:42.578Z,23.73
2023-05-21T05:27:05.615Z,23.84
2023-05-21T05:28:28.608Z,24.06
2023-05-21T05:30:17.123Z,24.18
2023-05-21T05:31:45.637Z,24.38
2023-05-21T05:35:58.940Z,24.98
2023-05-21T05:37:28.992Z,25.17
2023-05-21T05:39:17.703Z,25.38
2023-05-21T05:40:41.870Z,25.61
2023-05-21T05:45:25.367Z,25.99
2023-05-21T05:46:48.479Z,26.20
2023-05-21T05:48:10.052Z,26.30
2023-05-21T05:49:32.181Z,26.46
2023-05-21T05:50:57.183Z,26.58
2023-05-21T05:52:28.475Z,26.68
2023-05-21T05:53:51.148Z,26.72
2023-05-21T05:55:12.290Z,26.86
2023-05-21T05:56:45.401Z,26.94
2023-05-21T05:58:10.465Z,27.03
2023-05-21T06:01:34.528Z,27.44
2023-05-21T06:03:22.655Z,27.49
2023-05-21T06:07:02.027Z,28.01
2023-05-21T06:08:24.799Z,28.20
2023-05-21T06:10:23.070Z,28.33
2023-05-21T06:11:47.622Z,28.48
2023-05-21T06:13:28.537Z,28.58
2023-05-21T06:14:51.740Z,28.82
2023-05-21T06:18:12.693Z,29.11
2023-05-21T06:20:13.487Z,29.30
2023-05-21T06:21:37.799Z,29.53
2023-05-21T06:23:01.181Z,29.73
2023-05-21T06:24:35.871Z,29.80
2023-05-21T06:26:16.560Z,29.90
2023-05-21T06:27:42.180Z,30.00
2023-05-21T06:29:25.302Z,30.14
2023-05-21T06:30:51.738Z,30.35
2023-05-21T06:32:21.004Z,30.54
2023-05-21T06:33:43.861Z,30.74
2023-05-21T06:35:07.535Z,30.91
2023-05-21T06:36:30.314Z,31.12
2023-05-21T06:39:07.359Z,31.35
2023-05-21T06:40:37.255Z,31.75
2023-05-21T06:42:33.615Z,32.08
2023-05-21T06:44:15.907Z,32.56
2023-05-21T06:45:55.749Z,33.00
2023-05-21T06:47:53.702Z,33.44
2023-05-21T06:49:32.025Z,33.86
2023-05-21T06:50:55.568Z,34.41
2023-05-21T06:52:23.718Z,34.83
2023-05-21T06:53:45.733Z,35.10
2023-05-21T06:55:18.756Z,35.35
2023-05-21T06:57:01.810Z,35.83
2023-05-21T06:58:34.950Z,36.08
2023-05-21T07:00:05.262Z,36.39
2023-05-21T07:01:38.550Z,36.65
2023-05-21T07:03:07.831Z,37.05
2023-05-21T07:04:37.114Z,37.24
2023-05-21T07:06:06.700Z,37.52
2023-05-21T07:07:46.268Z,37.85
2023-05-21T07:09:14.525Z,38.13
2023-05-21T07:10:59.382Z,38.35
2023-05-21T07:12:37.829Z,38.38
2023-05-21T07:14:05.431Z,38.71
2023-05-21T07:15:31.190Z,39.14
2023-05-21T07:16:53.949Z,39.51
2023-05-21T07:18:18.051Z,39.91
2023-05-21T07:19:40.691Z,40.25
2023-05-21T07:21:02.892Z,40.52
2023-05-21T07:22:56.221Z,40.79
2023-05-21T07:24:18.704Z,41.04
2023-05-21T07:26:01.864Z,41.24
2023-05-21T07:27:39.289Z,41.58
2023-05-21T07:29:00.527Z,41.92
2023-05-21T07:30:26.148Z,42.25
2023-05-21T07:31:50.626Z,42.53
2023-05-21T07:35:54.065Z,43.16
2023-05-21T07:37:18.734Z,43.44
2023-05-21T07:38:42.224Z,43.64
2023-05-21T07:40:07.854Z,43.68
2023-05-21T07:41:36.225Z,43.70
2023-05-21T07:43:03.682Z,43.73
2023-05-21T07:45:05.844Z,43.78
2023-05-21T07:47:54.436Z,43.98
2023-05-21T07:49:18.980Z,44.29
2023-05-21T07:50:47.238Z,44.65
2023-05-21T07:52:11.281Z,45.06
2023-05-21T07:53:36.627Z,45.44
2023-05-21T07:55:06.458Z,45.98
2023-05-21T07:56:34.614Z,46.60
2023-05-21T07:57:57.542Z,47.17
2023-05-21T07:59:25.243Z,47.83
2023-05-21T08:01:47.463Z,48.41
2023-05-21T08:03:45.917Z,48.91
2023-05-21T08:05:37.525Z,49.71
2023-05-21T08:07:00.262Z,50.30
2023-05-21T08:08:41.913Z,50.72
2023-05-21T08:10:40.329Z,51.25
2023-05-21T08:12:04.245Z,51.97
2023-05-21T08:13:26.647Z,52.54
2023-05-21T08:14:51.945Z,53.11
2023-05-21T08:16:17.953Z,53.67
2023-05-21T08:17:41.232Z,54.20
2023-05-21T08:19:03.691Z,54.74
2023-05-21T08:20:26.468Z,55.16
2023-05-21T08:21:52.746Z,55.64
2023-05-21T08:23:16.667Z,56.10
2023-05-21T08:24:44.298Z,56.70
2023-05-21T08:26:09.783Z,57.33
2023-05-21T08:27:33.899Z,57.86
2023-05-21T08:28:55.178Z,58.38
2023-05-21T08:30:22.043Z,58.81
2023-05-21T08:31:55.659Z,59.22
2023-05-21T08:33:33.334Z,59.52
2023-05-21T08:35:05.551Z,59.80
2023-05-21T08:36:56.448Z,60.16
2023-05-21T08:38:47.095Z,60.55
2023-05-21T08:40:19.891Z,60.86
2023-05-21T08:41:50.012Z,61.27
2023-05-21T08:43:20.489Z,61.58
2023-05-21T08:45:15.748Z,61.76
2023-05-21T08:46:50.910Z,62.04
2023-05-21T08:48:13.339Z,62.22
2023-05-21T08:49:37.502Z,62.32
2023-05-21T08:51:04.066Z,62.43
2023-05-21T08:52:29.650Z,62.60
2023-05-21T08:53:52.748Z,62.66
2023-05-21T08:55:52.642Z,62.69
2023-05-21T08:57:20.383Z,62.76
2023-05-21T08:58:44.093Z,62.96
2023-05-21T09:00:11.516Z,63.32
2023-05-21T09:01:42.442Z,63.70
2023-05-21T09:03:17.287Z,64.36
2023-05-21T09:04:41.058Z,64.93
2023-05-21T09:06:03.769Z,65.47
2023-05-21T09:07:29.284Z,65.92
2023-05-21T09:09:13.654Z,66.40
2023-05-21T09:10:42.980Z,66.97
2023-05-21T09:12:05.717Z,67.38
2023-05-21T09:13:37.524Z,67.75
2023-05-21T09:15:06.360Z,68.04
2023-05-21T09:16:34.475Z,68.14
2023-05-21T09:17:58.938Z,68.21
2023-05-21T09:19:33.448Z,68.35
2023-05-21T09:20:57.539Z,68.45
2023-05-21T09:22:27.245Z,68.42
2023-05-21T09:23:55.900Z,68.20
2023-05-21T09:25:24.984Z,68.06
2023-05-21T09:26:47.607Z,68.05
2023-05-21T09:28:15.979Z,67.86
2023-05-21T09:29:41.017Z,67.65
2023-05-21T09:31:05.299Z,67.51
2023-05-21T09:32:27.595Z,67.35
2023-05-21T09:33:51.763Z,67.29
2023-05-21T09:35:16.691Z,67.23
2023-05-21T09:36:39.807Z,67.10
2023-05-21T09:38:02.329Z,67.09
2023-05-21T09:39:31.152Z,67.15
2023-05-21T09:41:05.879Z,67.20
2023-05-21T09:42:31.794Z,67.17
2023-05-21T09:44:19.220Z,67.01
2023-05-21T09:45:53.712Z,66.88
2023-05-21T09:47:25.349Z,66.90
2023-05-21T09:48:52.706Z,66.91
2023-05-21T09:51:06.813Z,66.95
2023-05-21T09:53:05.275Z,67.02
2023-05-21T09:54:34.100Z,67.01
2023-05-21T09:55:59.765Z,67.14
2023-05-21T09:57:26.540Z,67.07
2023-05-21T09:58:55.039Z,67.07
2023-05-21T10:00:24.900Z,67.11
2023-05-21T10:01:57.420Z,67.21
2023-05-21T10:03:24.770Z,67.17
2023-05-21T10:04:54.446Z,67.16
2023-05-21T10:06:19.086Z,67.25
2023-05-21T10:07:44.190Z,67.34
2023-05-21T10:09:11.158Z,67.39
2023-05-21T10:10:36.668Z,67.52
2023-05-21T10:12:00.657Z,67.62
2023-05-21T10:13:23.900Z,67.63
2023-05-21T10:14:52.420Z,67.64
2023-05-21T10:16:15.893Z,67.56
2023-05-21T10:17:39.691Z,67.54
2023-05-21T10:19:01.320Z,67.57
2023-05-21T10:20:44.712Z,67.48
2023-05-21T10:22:08.290Z,67.25
2023-05-21T10:23:31.506Z,67.10
2023-05-21T10:25:00.962Z,66.95
2023-05-21T10:26:28.895Z,66.86
2023-05-21T10:27:50.230Z,66.82
2023-05-21T10:29:13.991Z,66.70
2023-05-21T10:30:38.860Z,66.54
2023-05-21T10:32:02.669Z,66.33
2023-05-21T10:33:27.636Z,66.16
2023-05-21T10:34:50.978Z,66.08
2023-05-21T10:36:18.029Z,66.08
2023-05-21T10:37:40.483Z,66.11
2023-05-21T10:39:11.615Z,66.26
2023-05-21T10:40:39.129Z,66.35
2023-05-21T10:42:14.089Z,66.31
2023-05-21T10:43:44.536Z,66.23
2023-05-21T10:45:17.447Z,66.09
2023-05-21T10:47:03.848Z,65.79
2023-05-21T10:48:44.239Z,65.07
2023-05-21T10:50:26.101Z,63.04
2023-05-21T10:52:03.167Z,60.58
2023-05-21T10:53:33.798Z,58.58
2023-05-21T10:55:12.936Z,56.58
2023-05-21T10:56:46.489Z,54.87
2023-05-21T10:58:32.679Z,53.22
2023-05-21T10:59:55.573Z,51.65
2023-05-21T11:01:19.520Z,50.36
2023-05-21T11:02:42.363Z,49.19
2023-05-21T11:04:06.076Z,48.09
2023-05-21T11:05:56.102Z,46.76
2023-05-21T11:07:25.594Z,45.65
2023-05-21T11:08:48.608Z,44.78
2023-05-21T11:10:33.429Z,43.86
2023-05-21T11:11:59.425Z,43.05
2023-05-21T11:13:22.010Z,42.27
2023-05-21T11:14:58.410Z,41.48
2023-05-21T11:16:22.293Z,40.72
2023-05-21T11:17:44.845Z,40.12
2023-05-21T11:19:07.014Z,39.47
2023-05-21T11:20:36.035Z,38.86
2023-05-21T11:21:57.382Z,38.23
2023-05-21T11:23:22.566Z,37.62
2023-05-21T11:24:44.688Z,37.07
2023-05-21T11:26:07.339Z,36.59
2023-05-21T11:27:34.920Z,36.18
2023-05-21T11:29:08.054Z,35.69
2023-05-21T11:30:30.533Z,35.38
2023-05-21T11:32:02.867Z,35.05
2023-05-21T11:33:25.113Z,34.76
2023-05-21T11:34:48.346Z,34.47
2023-05-21T11:36:13.072Z,34.19
2023-05-21T11:37:37.306Z,33.99
2023-05-21T11:39:11.943Z,33.70
2023-05-21T11:40:34.800Z,33.49
2023-05-21T11:41:59.815Z,33.27
2023-05-21T11:43:23.225Z,33.13
2023-05-21T11:44:46.072Z,32.98
2023-05-21T11:46:08.796Z,32.81
2023-05-21T11:47:30.414Z,32.65
2023-05-21T11:48:56.978Z,32.53
2023-05-21T11:50:19.861Z,32.43
2023-05-21T11:51:41.181Z,32.33
2023-05-21T11:53:03.989Z,32.23
2023-05-21T11:54:27.347Z,32.11
2023-05-21T11:55:50.817Z,31.99
2023-05-21T11:57:12.622Z,31.87
2023-05-21T11:58:34.641Z,31.74
2023-05-21T11:59:58.638Z,31.59
2023-05-21T12:01:24.182Z,31.39
2023-05-21T12:02:47.935Z,31.34
2023-05-21T12:04:11.144Z,31.23
2023-05-21T12:05:45.347Z,31.13
2023-05-21T12:07:22.706Z,30.99
2023-05-21T12:08:58.724Z,30.90
2023-05-21T12:10:26.231Z,30.87
2023-05-21T12:11:47.861Z,30.83
2023-05-21T12:13:10.129Z,30.80
2023-05-21T12:14:34.641Z,30.69
2023-05-21T12:15:57.150Z,30.74
2023-05-21T12:17:19.532Z,30.72
2023-05-21T12:18:43.450Z,30.69
2023-05-21T12:20:08.550Z,30.63
2023-05-21T12:21:30.057Z,30.61
2023-05-21T12:22:52.241Z,30.57
2023-05-21T12:24:13.636Z,30.52
2023-05-21T12:25:37.258Z,30.51
2023-05-21T12:26:59.742Z,30.48
2023-05-21T12:28:24.812Z,30.48
2023-05-21T12:29:51.779Z,30.47
2023-05-21T12:31:16.900Z,30.43
2023-05-21T12:32:44.390Z,30.46
2023-05-21T12:34:05.882Z,30.46
2023-05-21T12:35:28.050Z,30.40
2023-05-21T12:36:53.288Z,30.43
2023-05-21T12:38:18.001Z,30.39
2023-05-21T12:39:40.701Z,30.34
2023-05-21T12:41:07.929Z,30.34
2023-05-21T12:42:31.278Z,30.29
2023-05-21T12:43:53.502Z,30.29
2023-05-21T12:45:18.920Z,30.21
2023-05-21T12:46:42.219Z,30.20
2023-05-21T12:48:05.284Z,30.19
2023-05-21T12:49:38.536Z,30.12
2023-05-21T12:51:00.020Z,30.10
2023-05-21T12:52:22.096Z,30.07
2023-05-21T12:53:44.594Z,30.04
2023-05-21T12:55:10.618Z,30.02
2023-05-21T12:56:48.730Z,29.91
2023-05-21T12:58:15.521Z,29.96
2023-05-21T12:59:51.564Z,29.91
2023-05-21T13:01:14.094Z,29.91
2023-05-21T13:02:40.176Z,29.89
2023-05-21T13:04:02.423Z,29.86
2023-05-21T13:05:27.994Z,29.84
2023-05-21T13:06:49.258Z,29.83
2023-05-21T13:08:14.296Z,29.79
2023-05-21T13:09:35.418Z,29.80
2023-05-21T13:10:57.891Z,29.81
2023-05-21T13:12:22.166Z,29.81
2023-05-21T13:13:45.531Z,29.80
2023-05-21T13:15:10.319Z,29.81
2023-05-21T13:16:31.222Z,29.82
2023-05-21T13:17:55.243Z,29.82
2023-05-21T13:19:18.824Z,29.84
2023-05-21T13:20:40.876Z,29.86
2023-05-21T13:22:04.584Z,29.88
2023-05-21T13:23:26.594Z,29.89
2023-05-21T13:24:51.537Z,29.90
2023-05-21T13:26:19.930Z,29.94
2023-05-21T13:27:44.192Z,29.98
2023-05-21T13:29:05.349Z,29.96
2023-05-21T13:30:27.575Z,30.04
2023-05-21T13:31:49.772Z,30.05
2023-05-21T13:33:12.114Z,30.11
2023-05-21T13:34:33.524Z,30.17
2023-05-21T13:35:58.397Z,30.22
2023-05-21T13:37:22.676Z,30.25
2023-05-21T13:38:45.317Z,30.29
2023-05-21T13:40:11.171Z,30.30
2023-05-21T13:41:32.279Z,30.35
2023-05-21T13:42:56.105Z,30.33
2023-05-21T13:44:21.583Z,30.40
2023-05-21T13:45:44.587Z,30.40
2023-05-21T13:47:06.086Z,30.38
2023-05-21T13:48:30.822Z,30.38
2023-05-21T13:49:51.765Z,30.38
2023-05-21T13:51:19.887Z,30.32
2023-05-21T13:52:48.499Z,30.30
2023-05-21T13:54:14.284Z,30.28
2023-05-21T13:55:39.107Z,30.25
2023-05-21T13:57:01.302Z,30.19
2023-05-21T13:58:25.174Z,30.16
2023-05-21T13:59:47.531Z,30.11
2023-05-21T14:01:10.472Z,30.09
2023-05-21T14:02:32.724Z,30.07
2023-05-21T14:03:55.439Z,30.04
2023-05-21T14:05:17.936Z,29.98
2023-05-21T14:06:41.302Z,29.95
2023-05-21T14:08:03.867Z,29.91
2023-05-21T14:09:28.054Z,29.86
2023-05-21T14:10:52.549Z,29.81
2023-05-21T14:12:17.518Z,29.74
2023-05-21T14:13:41.481Z,29.69
2023-05-21T14:15:03.503Z,29.65
2023-05-21T14:16:27.838Z,29.60
2023-05-21T14:17:50.402Z,29.58
2023-05-21T14:19:12.329Z,29.55
2023-05-21T14:20:34.396Z,29.52
2023-05-21T14:21:56.739Z,29.49
2023-05-21T14:23:18.986Z,29.46
2023-05-21T14:24:40.975Z,29.45
2023-05-21T14:26:03.696Z,29.44
2023-05-21T14:27:25.771Z,29.43
2023-05-21T14:28:49.464Z,29.43
2023-05-21T14:30:12.699Z,29.40
2023-05-21T14:31:34.853Z,29.40
2023-05-21T14:32:58.055Z,29.40
2023-05-21T14:34:20.298Z,29.38
2023-05-21T14:35:44.310Z,29.36
2023-05-21T14:37:06.996Z,29.36
2023-05-21T14:38:29.342Z,29.31
2023-05-21T14:39:51.379Z,29.31
2023-05-21T14:41:13.556Z,29.29
2023-05-21T14:42:37.895Z,29.27
2023-05-21T14:44:01.849Z,29.26
2023-05-21T14:45:24.298Z,29.26
2023-05-21T14:46:46.208Z,29.21
2023-05-21T14:48:09.630Z,29.18
2023-05-21T14:49:32.180Z,29.14
2023-05-21T14:50:55.091Z,29.10
2023-05-21T14:52:17.086Z,29.06
2023-05-21T14:53:39.556Z,29.00
2023-05-21T14:55:01.565Z,28.96
2023-05-21T14:56:26.395Z,28.95
2023-05-21T14:57:48.640Z,28.92
2023-05-21T14:59:13.104Z,28.91
2023-05-21T15:00:36.302Z,28.89
2023-05-21T15:01:58.948Z,28.90
2023-05-21T15:03:21.049Z,28.90
2023-05-21T15:04:42.157Z,28.88
2023-05-21T15:06:06.868Z,28.88
2023-05-21T15:07:29.592Z,28.81
2023-05-21T15:08:51.817Z,28.86
2023-05-21T15:10:15.330Z,28.85
2023-05-21T15:11:44.025Z,28.86
2023-05-21T15:13:06.059Z,28.87
2023-05-21T15:14:28.537Z,28.86
2023-05-21T15:15:53.577Z,28.86
2023-05-21T15:17:15.849Z,28.88
2023-05-21T15:18:42.429Z,28.86
2023-05-21T15:20:07.438Z,28.90
2023-05-21T15:21:30.076Z,28.93
2023-05-21T15:24:27.609Z,28.98
2023-05-21T15:25:52.159Z,29.03
2023-05-21T15:27:14.282Z,29.06
2023-05-21T15:28:36.644Z,29.09
2023-05-21T15:30:05.965Z,29.08
2023-05-21T15:31:28.579Z,29.10
2023-05-21T15:32:52.807Z,29.17
2023-05-21T15:34:15.228Z,29.19
2023-05-21T15:35:40.328Z,29.20
2023-05-21T15:37:02.687Z,29.25
2023-05-21T15:38:23.889Z,29.28
2023-05-21T15:39:47.074Z,29.29
2023-05-21T15:41:11.450Z,29.34
2023-05-21T15:42:34.247Z,29.36
2023-05-21T15:43:56.577Z,29.37
2023-05-21T15:45:21.416Z,29.40
2023-05-21T15:46:46.006Z,29.42
2023-05-21T15:48:10.079Z,29.46
2023-05-21T15:49:32.289Z,29.47
2023-05-21T15:50:54.569Z,29.47
2023-05-21T15:52:17.257Z,29.49
2023-05-21T15:53:41.837Z,29.55
2023-05-21T15:55:04.184Z,29.54
2023-05-21T15:56:26.814Z,29.58
2023-05-21T15:57:49.212Z,29.60
2023-05-21T15:59:11.394Z,29.59
2023-05-21T16:00:35.501Z,29.62
2023-05-21T16:01:57.859Z,29.67
2023-05-21T16:03:20.259Z,29.68
2023-05-21T16:04:45.676Z,29.65
2023-05-21T16:06:08.261Z,29.63
2023-05-21T16:07:31.138Z,29.59
2023-05-21T16:08:54.151Z,29.66
2023-05-21T16:10:16.465Z,29.61
2023-05-21T16:11:57.224Z,29.61
2023-05-21T16:13:19.477Z,29.57
2023-05-21T16:14:42.083Z,29.54
2023-05-21T16:16:05.773Z,29.45
2023-05-21T16:17:30.742Z,29.49
2023-05-21T16:18:53.212Z,29.39
2023-05-21T16:20:14.641Z,29.34
2023-05-21T16:21:50.649Z,29.28
2023-05-21T16:23:13.368Z,29.27
2023-05-21T16:24:36.031Z,29.21
2023-05-21T16:25:57.318Z,29.19
2023-05-21T16:27:19.657Z,29.04
2023-05-21T16:28:48.481Z,29.05
2023-05-21T16:30:14.243Z,28.93
2023-05-21T16:31:40.741Z,28.89
2023-05-21T16:33:03.099Z,28.81
2023-05-21T16:34:24.616Z,28.76
2023-05-21T16:35:47.116Z,28.66
2023-05-21T16:37:10.123Z,28.61
2023-05-21T16:38:32.958Z,28.54
2023-05-21T16:40:02.339Z,28.48
2023-05-21T16:41:26.492Z,28.42
2023-05-21T16:42:47.467Z,28.35
2023-05-21T16:44:09.832Z,28.29
2023-05-21T16:45:40.758Z,28.22
2023-05-21T16:47:05.200Z,28.17
2023-05-21T16:48:26.447Z,28.11
2023-05-21T16:49:48.754Z,28.03
2023-05-21T16:51:09.944Z,28.01
2023-05-21T16:52:31.909Z,27.95
2023-05-21T16:54:02.505Z,27.86
2023-05-21T16:55:25.186Z,27.83
2023-05-21T16:56:46.384Z,27.78
2023-05-21T16:58:10.858Z,27.71
2023-05-21T16:59:33.030Z,27.66
2023-05-21T17:00:55.463Z,27.63
2023-05-21T17:02:30.125Z,27.52
2023-05-21T17:03:57.967Z,27.47
2023-05-21T17:05:24.066Z,27.40
2023-05-21T17:06:49.374Z,27.36
2023-05-21T17:08:11.796Z,27.31
2023-05-21T17:09:39.723Z,27.24
2023-05-21T17:11:02.010Z,27.18
2023-05-21T17:12:24.724Z,27.13
2023-05-21T17:13:48.288Z,27.01
2023-05-21T17:15:10.792Z,27.03
2023-05-21T17:17:04.997Z,26.90
2023-05-21T17:18:56.192Z,26.82
2023-05-21T17:20:35.630Z,26.76
2023-05-21T17:22:00.917Z,26.74
2023-05-21T17:23:24.914Z,26.67
2023-05-21T17:24:51.775Z,26.61
2023-05-21T17:26:16.744Z,26.55
2023-05-21T17:28:00.054Z,26.47
2023-05-21T17:29:23.525Z,26.41
2023-05-21T17:30:48.743Z,26.35
2023-05-21T17:32:12.879Z,26.29
2023-05-21T17:33:37.878Z,26.20
2023-05-21T17:35:04.065Z,26.21
2023-05-21T17:36:26.478Z,26.17
2023-05-21T17:37:50.458Z,26.12
2023-05-21T17:39:13.147Z,26.07
2023-05-21T17:40:35.863Z,26.04
2023-05-21T17:41:59.174Z,26.01
2023-05-21T17:43:21.346Z,25.95
2023-05-21T17:44:43.493Z,25.92
2023-05-21T17:46:06.076Z,25.84
2023-05-21T17:47:28.557Z,25.82
2023-05-21T17:48:56.129Z,25.77
2023-05-21T17:50:20.132Z,25.71
2023-05-21T17:51:46.878Z,25.67
2023-05-21T17:53:09.453Z,25.62
2023-05-21T17:54:32.046Z,25.48
2023-05-21T17:55:57.576Z,25.51
2023-05-21T17:57:20.485Z,25.45
2023-05-21T17:58:43.873Z,25.38
2023-05-21T18:00:07.736Z,25.37
2023-05-21T18:01:52.104Z,25.32
2023-05-21T18:03:39.225Z,25.24
2023-05-21T18:05:06.211Z,25.17
2023-05-21T18:06:29.162Z,25.12
2023-05-21T18:07:52.216Z,25.05
2023-05-21T18:09:16.782Z,25.02
2023-05-21T18:11:08.546Z,24.97
2023-05-21T18:12:31.112Z,24.87
2023-05-21T18:13:55.294Z,24.84
2023-05-21T18:15:36.139Z,24.79
2023-05-21T18:16:58.516Z,24.74
2023-05-21T18:18:21.623Z,24.69
2023-05-21T18:19:44.152Z,24.67
2023-05-21T18:21:06.812Z,24.61
2023-05-21T18:22:32.118Z,24.56
2023-05-21T18:23:55.319Z,24.54
2023-05-21T18:25:20.066Z,24.48
2023-05-21T18:26:43.430Z,24.43
2023-05-21T18:28:34.846Z,24.34
2023-05-21T18:29:57.080Z,24.30
2023-05-21T18:31:19.237Z,24.28
2023-05-21T18:32:45.032Z,24.20
2023-05-21T18:34:07.481Z,24.15
2023-05-21T18:35:31.188Z,24.15
2023-05-21T18:36:54.684Z,24.11
2023-05-21T18:38:18.254Z,24.08
2023-05-21T18:39:43.033Z,24.03
2023-05-21T18:41:05.316Z,23.99
2023-05-21T18:42:29.477Z,23.96
2023-05-21T18:43:51.772Z,23.91
2023-05-21T18:45:15.123Z,23.87
2023-05-21T18:46:38.013Z,23.80
2023-05-21T18:48:01.519Z,23.79
2023-05-21T18:49:24.207Z,23.73
2023-05-21T18:50:46.434Z,23.72
2023-05-21T18:52:09.296Z,23.67
2023-05-21T18:53:33.264Z,23.63
2023-05-21T18:54:56.141Z,23.61
2023-05-21T18:56:20.289Z,23.55
2023-05-21T18:59:51.229Z,23.43
2023-05-21T19:01:14.248Z,23.42
2023-05-21T19:02:36.135Z,23.38
2023-05-21T19:04:03.626Z,23.35
2023-05-21T19:05:26.206Z,23.30
2023-05-21T19:08:12.629Z,23.24
2023-05-21T19:09:36.938Z,23.20
2023-05-21T19:11:02.749Z,23.18